createdAt,value
2023-04-23T00:00:24.825Z,100094.25
2023-04-23T00:02:53.518Z,100087.03
2023-04-23T00:05:23.461Z,100091.09
2023-04-23T00:07:52.480Z,100090.09
2023-04-23T00:10:19.276Z,100085.69
2023-04-23T00:12:46.075Z,100083.00
2023-04-23T00:15:13.948Z,100086.16
2023-04-23T00:17:40.592Z,100085.19
2023-04-23T00:20:12.821Z,100084.38
2023-04-23T00:22:39.453Z,100076.63
2023-04-23T00:25:06.932Z,100080.91
2023-04-23T00:27:33.461Z,100091.31
2023-04-23T00:30:00.495Z,100083.50
2023-04-23T00:32:29.878Z,100077.38
2023-04-23T00:34:56.731Z,100087.84
2023-04-23T00:37:26.039Z,100079.97
2023-04-23T00:39:52.671Z,100078.16
2023-04-23T00:42:19.321Z,100072.91
2023-04-23T00:44:45.906Z,100079.00
2023-04-23T00:47:17.940Z,100081.66
2023-04-23T00:49:47.413Z,100079.84
2023-04-23T00:52:13.940Z,100075.41
2023-04-23T00:54:40.951Z,100071.00
2023-04-23T00:57:08.381Z,100074.38
2023-04-23T00:59:36.665Z,100067.41
2023-04-23T01:02:05.922Z,100073.44
2023-04-23T01:04:32.999Z,100065.47
2023-04-23T01:06:59.675Z,100073.22
2023-04-23T01:09:29.003Z,100069.69
2023-04-23T01:11:55.815Z,100067.13
2023-04-23T01:14:22.484Z,100068.81
2023-04-23T01:16:49.462Z,100067.94
2023-04-23T01:19:16.199Z,100071.25
2023-04-23T01:21:43.163Z,100071.19
2023-04-23T01:24:12.744Z,100072.03
2023-04-23T01:26:39.742Z,100073.72
2023-04-23T01:29:06.371Z,100074.41
2023-04-23T01:31:32.998Z,100066.47
2023-04-23T01:33:59.558Z,100064.72
2023-04-23T01:36:27.494Z,100068.81
2023-04-23T01:38:54.128Z,100067.13
2023-04-23T01:41:21.176Z,100068.09
2023-04-23T01:43:50.351Z,100067.91
2023-04-23T01:46:17.602Z,100062.66
2023-04-23T01:48:49.646Z,100065.22
2023-04-23T01:51:18.751Z,100074.78
2023-04-23T01:53:48.113Z,100062.66
2023-04-23T01:56:17.183Z,100052.06
2023-04-23T01:58:47.096Z,100063.13
2023-04-23T02:01:13.857Z,100063.91
2023-04-23T02:03:40.878Z,100057.00
2023-04-23T02:06:08.062Z,100060.47
2023-04-23T02:08:37.170Z,100054.44
2023-04-23T02:11:03.789Z,100056.19
2023-04-23T02:13:30.598Z,100061.84
2023-04-23T02:15:57.271Z,100061.59
2023-04-23T02:18:26.554Z,100062.47
2023-04-23T02:20:53.879Z,100058.03
2023-04-23T02:23:22.883Z,100062.19
2023-04-23T02:25:49.525Z,100048.09
2023-04-23T02:28:21.073Z,100049.91
2023-04-23T02:30:52.237Z,100054.31
2023-04-23T02:33:19.803Z,100055.34
2023-04-23T02:35:46.780Z,100051.69
2023-04-23T02:38:13.388Z,100048.06
2023-04-23T02:40:40.137Z,100048.84
2023-04-23T02:43:09.491Z,100052.09
2023-04-23T02:45:38.252Z,100050.31
2023-04-23T02:48:04.919Z,100048.56
2023-04-23T02:50:31.551Z,100045.13
2023-04-23T02:52:58.145Z,100043.38
2023-04-23T02:55:29.861Z,100042.53
2023-04-23T02:57:56.708Z,100043.38
2023-04-23T03:00:28.404Z,100042.50
2023-04-23T03:02:57.750Z,100041.50
2023-04-23T03:05:24.541Z,100046.59
2023-04-23T03:07:51.238Z,100048.13
2023-04-23T03:10:17.967Z,100042.91
2023-04-23T03:12:47.011Z,100044.56
2023-04-23T03:15:14.732Z,100044.50
2023-04-23T03:17:46.485Z,100041.91
2023-04-23T03:20:14.653Z,100038.41
2023-04-23T03:22:44.212Z,100035.81
2023-04-23T03:25:20.630Z,100042.66
2023-04-23T03:27:50.543Z,100042.63
2023-04-23T03:30:17.455Z,100042.44
2023-04-23T03:32:46.440Z,100039.78
2023-04-23T03:35:15.378Z,100044.06
2023-04-23T03:37:47.041Z,100044.06
2023-04-23T03:40:14.970Z,100052.75
2023-04-23T03:42:43.587Z,100049.25
2023-04-23T03:45:13.848Z,100047.34
2023-04-23T03:47:40.735Z,100045.72
2023-04-23T03:50:09.114Z,100043.53
2023-04-23T03:52:36.475Z,100048.03
2023-04-23T03:55:03.828Z,100046.28
2023-04-23T03:57:36.249Z,100052.25
2023-04-23T04:00:33.902Z,100051.97
2023-04-23T04:03:02.370Z,100060.50
2023-04-23T04:05:31.168Z,100054.34
2023-04-23T04:08:02.240Z,100053.50
2023-04-23T04:10:32.568Z,100068.25
2023-04-23T04:12:59.189Z,100063.94
2023-04-23T04:15:27.623Z,100062.16
2023-04-23T04:17:54.633Z,100060.41
2023-04-23T04:20:23.730Z,100066.16
2023-04-23T04:22:52.506Z,100064.59
2023-04-23T04:25:19.105Z,100071.66
2023-04-23T04:27:46.175Z,100071.00
2023-04-23T04:30:12.959Z,100073.75
2023-04-23T04:32:40.613Z,100072.13
2023-04-23T04:35:09.914Z,100078.09
2023-04-23T04:37:36.568Z,100075.56
2023-04-23T04:40:05.305Z,100076.56
2023-04-23T04:42:39.584Z,100075.72
2023-04-23T04:45:10.145Z,100080.75
2023-04-23T04:47:39.175Z,100079.94
2023-04-23T04:50:08.171Z,100078.31
2023-04-23T04:52:35.742Z,100081.84
2023-04-23T04:55:04.622Z,100082.69
2023-04-23T04:57:31.236Z,100082.41
2023-04-23T05:00:02.580Z,100086.16
2023-04-23T05:02:31.663Z,100087.78
2023-04-23T05:04:58.540Z,100091.34
2023-04-23T05:07:25.263Z,100088.16
2023-04-23T05:09:54.186Z,100088.66
2023-04-23T05:12:23.275Z,100089.69
2023-04-23T05:14:51.276Z,100090.47
2023-04-23T05:17:21.397Z,100089.78
2023-04-23T05:19:51.231Z,100088.22
2023-04-23T05:22:21.164Z,100091.09
2023-04-23T05:24:48.136Z,100093.88
2023-04-23T05:27:17.623Z,100094.00
2023-04-23T05:29:46.449Z,100091.44
2023-04-23T05:32:14.003Z,100094.03
2023-04-23T05:34:42.570Z,100089.13
2023-04-23T05:41:02.788Z,100083.19
2023-04-23T05:43:33.042Z,100083.19
2023-04-23T05:45:59.644Z,100089.16
2023-04-23T05:48:26.741Z,100087.47
2023-04-23T05:50:53.604Z,100089.31
2023-04-23T05:53:29.219Z,100089.47
2023-04-23T05:56:05.083Z,100092.16
2023-04-23T05:58:38.951Z,100082.13
2023-04-23T06:01:15.779Z,100090.31
2023-04-23T06:03:45.732Z,100095.91
2023-04-23T06:06:15.244Z,100095.22
2023-04-23T06:08:59.316Z,100093.75
2023-04-23T06:11:28.441Z,100094.06
2023-04-23T06:13:56.954Z,100094.28
2023-04-23T06:16:24.190Z,100095.22
2023-04-23T06:18:50.936Z,100096.09
2023-04-23T06:21:20.671Z,100094.41
2023-04-23T06:23:47.270Z,100097.16
2023-04-23T06:26:13.863Z,100102.44
2023-04-23T06:28:42.128Z,100098.44
2023-04-23T06:31:24.664Z,100098.81
2023-04-23T06:33:56.380Z,100099.06
2023-04-23T06:36:23.604Z,100099.38
2023-04-23T06:38:52.489Z,100087.47
2023-04-23T06:41:19.182Z,100097.22
2023-04-23T06:43:46.415Z,100095.59
2023-04-23T06:46:23.710Z,100100.84
2023-04-23T06:48:50.325Z,100100.16
2023-04-23T06:51:19.565Z,100100.97
2023-04-23T06:53:48.456Z,100100.03
2023-04-23T06:56:17.558Z,100098.41
2023-04-23T06:58:49.676Z,100097.81
2023-04-23T07:01:23.386Z,100097.19
2023-04-23T07:03:51.806Z,100087.78
2023-04-23T07:06:21.422Z,100087.13
2023-04-23T07:08:48.723Z,100092.56
2023-04-23T07:11:15.498Z,100091.81
2023-04-23T07:13:46.972Z,100098.03
2023-04-23T07:16:13.734Z,100091.13
2023-04-23T07:18:42.877Z,100092.19
2023-04-23T07:21:11.596Z,100090.63
2023-04-23T07:23:40.521Z,100080.31
2023-04-23T07:26:09.724Z,100082.16
2023-04-23T07:28:38.786Z,100090.03
2023-04-23T07:31:05.445Z,100083.03
2023-04-23T07:33:32.039Z,100077.94
2023-04-23T07:36:01.192Z,100086.53
2023-04-23T07:38:27.800Z,100080.34
2023-04-23T07:40:54.431Z,100073.50
2023-04-23T07:43:21.695Z,100069.28
2023-04-23T07:45:48.758Z,100072.06
2023-04-23T07:48:19.058Z,100067.84
2023-04-23T07:50:48.668Z,100064.53
2023-04-23T07:53:17.703Z,100062.00
2023-04-23T07:55:46.837Z,100065.59
2023-04-23T07:58:18.585Z,100063.06
2023-04-23T08:00:48.483Z,100064.91
2023-04-23T08:03:15.244Z,100061.47
2023-04-23T08:05:42.007Z,100065.06
2023-04-23T08:08:12.062Z,100063.34
2023-04-23T08:10:41.444Z,100054.66
2023-04-23T08:13:08.269Z,100052.94
2023-04-23T08:15:34.883Z,100058.19
2023-04-23T08:18:04.496Z,100059.97
2023-04-23T08:20:32.531Z,100060.84
2023-04-23T08:22:59.328Z,100058.25
2023-04-23T08:25:26.015Z,100052.09
2023-04-23T08:27:57.604Z,100056.47
2023-04-23T08:30:24.324Z,100052.97
2023-04-23T08:32:53.777Z,100050.31
2023-04-23T08:35:20.740Z,100052.88
2023-04-23T08:37:49.876Z,100049.41
2023-04-23T08:40:17.079Z,100044.97
2023-04-23T08:42:51.010Z,100039.69
2023-04-23T08:45:18.081Z,100038.84
2023-04-23T08:47:47.511Z,100039.75
2023-04-23T08:50:20.936Z,100035.28
2023-04-23T08:52:48.382Z,100029.94
2023-04-23T08:55:15.943Z,100022.94
2023-04-23T08:57:45.486Z,100019.38
2023-04-23T09:00:12.550Z,100021.00
2023-04-23T09:02:46.576Z,100033.22
2023-04-23T09:05:13.695Z,100020.94
2023-04-23T09:07:43.000Z,100019.03
2023-04-23T09:10:12.997Z,100023.19
2023-04-23T09:12:41.462Z,100014.34
2023-04-23T09:15:14.131Z,100013.22
2023-04-23T09:17:47.210Z,100008.75
2023-04-23T09:20:18.835Z,100007.72
2023-04-23T09:22:47.990Z,100003.19
2023-04-23T09:25:22.465Z,100001.34
2023-04-23T09:27:52.373Z,100001.50
2023-04-23T09:30:19.642Z,100006.00
2023-04-23T09:32:46.791Z,100005.97
2023-04-23T09:35:15.091Z,100012.84
2023-04-23T09:37:51.000Z,100001.38
2023-04-23T09:40:18.386Z,99998.44
2023-04-23T09:42:49.950Z,99994.25
2023-04-23T09:45:22.042Z,99995.81
2023-04-23T09:47:52.255Z,99992.06
2023-04-23T09:50:39.605Z,99991.16
2023-04-23T09:53:07.235Z,99987.63
2023-04-23T09:55:39.122Z,99991.13
2023-04-23T09:58:07.354Z,99987.44
2023-04-23T10:00:35.069Z,99976.53
2023-04-23T10:03:02.036Z,99988.69
2023-04-23T10:05:45.287Z,99987.13
2023-04-23T10:08:20.794Z,99969.34
2023-04-23T10:11:00.081Z,99974.94
2023-04-23T10:13:36.410Z,99971.06
2023-04-23T10:16:20.735Z,99958.25
2023-04-23T10:18:49.250Z,99958.09
2023-04-23T10:21:16.344Z,99965.72
2023-04-23T10:23:43.161Z,99956.69
2023-04-23T10:26:09.898Z,99964.63
2023-04-23T10:28:36.622Z,99952.13
2023-04-23T10:31:04.092Z,99951.41
2023-04-23T10:33:42.690Z,99950.41
2023-04-23T10:36:17.324Z,99939.94
2023-04-23T10:38:56.748Z,99949.38
2023-04-23T10:41:25.008Z,99949.00
2023-04-23T10:43:54.136Z,99937.22
2023-04-23T10:46:30.748Z,99935.22
2023-04-23T10:49:08.967Z,99935.88
2023-04-23T10:54:06.200Z,99916.09
2023-04-23T10:56:33.282Z,99918.47
2023-04-23T10:58:59.891Z,99929.63
2023-04-23T11:01:32.070Z,99928.88
2023-04-23T11:03:59.773Z,99924.91
2023-04-23T11:06:45.435Z,99921.94
2023-04-23T11:09:30.966Z,99930.63
2023-04-23T11:11:58.199Z,99916.09
2023-04-23T11:14:36.387Z,99924.69
2023-04-23T11:17:09.088Z,99915.16
2023-04-23T11:19:38.909Z,99922.94
2023-04-23T11:22:08.157Z,99920.56
2023-04-23T11:24:36.837Z,99923.59
2023-04-23T11:27:05.537Z,99909.25
2023-04-23T11:29:32.188Z,99901.22
2023-04-23T11:32:02.927Z,99909.41
2023-04-23T11:34:30.568Z,99905.97
2023-04-23T11:36:58.707Z,99906.94
2023-04-23T11:39:28.535Z,99907.91
2023-04-23T11:41:55.280Z,99905.56
2023-04-23T11:44:22.072Z,99897.38
2023-04-23T11:46:51.596Z,99898.50
2023-04-23T11:49:21.804Z,99892.88
2023-04-23T11:51:48.408Z,99901.84
2023-04-23T11:54:15.120Z,99897.78
2023-04-23T11:56:42.164Z,99895.66
2023-04-23T11:59:11.199Z,99878.56
2023-04-23T12:01:42.689Z,99886.47
2023-04-23T12:04:10.990Z,99882.59
2023-04-23T12:06:38.143Z,99881.84
2023-04-23T12:09:05.136Z,99870.50
2023-04-23T12:11:31.688Z,99875.91
2023-04-23T12:14:00.765Z,99865.84
2023-04-23T12:16:34.243Z,99863.28
2023-04-23T12:19:01.217Z,99868.03
2023-04-23T12:21:30.688Z,99852.13
2023-04-23T12:23:58.331Z,99858.13
2023-04-23T12:26:25.695Z,99859.34
2023-04-23T12:28:53.014Z,99856.09
2023-04-23T12:31:24.032Z,99854.72
2023-04-23T12:34:05.728Z,99846.84
2023-04-23T12:36:35.677Z,99851.72
2023-04-23T12:39:24.185Z,99851.78
2023-04-23T12:41:55.048Z,99840.66
2023-04-23T12:44:23.880Z,99837.31
2023-04-23T12:46:57.826Z,99833.38
2023-04-23T12:49:29.796Z,99834.59
2023-04-23T12:52:05.724Z,99822.38
2023-04-23T12:54:37.983Z,99831.09
2023-04-23T12:57:27.014Z,99833.31
2023-04-23T12:59:55.090Z,99822.75
2023-04-23T13:02:24.269Z,99823.81
2023-04-23T13:04:59.691Z,99826.34
2023-04-23T13:07:31.180Z,99812.88
2023-04-23T13:10:07.697Z,99821.75
2023-04-23T13:12:37.881Z,99815.41
2023-04-23T13:15:12.171Z,99817.13
2023-04-23T13:17:41.410Z,99807.13
2023-04-23T13:20:10.462Z,99802.59
2023-04-23T13:22:37.218Z,99808.81
2023-04-23T13:25:06.214Z,99804.47
2023-04-23T13:27:40.740Z,99795.34
2023-04-23T13:30:23.151Z,99789.78
2023-04-23T13:33:04.604Z,99784.66
2023-04-23T13:35:55.934Z,99783.50
2023-04-23T13:38:56.155Z,99781.88
2023-04-23T13:42:14.629Z,99771.72
2023-04-23T13:46:06.818Z,99766.50
2023-04-23T13:48:38.761Z,99769.06
2023-04-23T14:00:23.672Z,99751.16
2023-04-23T14:06:00.388Z,99753.81
2023-04-23T14:08:43.253Z,99751.59
2023-04-23T14:11:47.569Z,99756.72
2023-04-23T14:14:51.092Z,99749.31
2023-04-23T14:17:52.457Z,99746.19
2023-04-23T14:20:56.849Z,99741.22
2023-04-23T14:23:53.416Z,99744.78
2023-04-23T14:29:41.189Z,99740.78
2023-04-23T14:32:13.433Z,99727.16
2023-04-23T14:34:40.002Z,99726.63
2023-04-23T14:37:06.846Z,99723.81
2023-04-23T14:39:33.881Z,99732.81
2023-04-23T14:42:03.718Z,99728.94
2023-04-23T14:44:32.648Z,99729.16
2023-04-23T14:46:59.411Z,99725.69
2023-04-23T14:49:28.376Z,99721.28
2023-04-23T14:51:55.065Z,99719.94
2023-04-23T14:54:38.206Z,99736.44
2023-04-23T14:57:07.297Z,99722.19
2023-04-23T14:59:33.943Z,99717.09
2023-04-23T15:02:01.459Z,99717.72
2023-04-23T15:04:28.298Z,99712.75
2023-04-23T15:06:55.065Z,99711.75
2023-04-23T15:09:29.410Z,99702.63
2023-04-23T15:11:58.414Z,99711.88
2023-04-23T15:14:28.657Z,99707.44
2023-04-23T15:16:55.352Z,99713.75
2023-04-23T15:19:26.820Z,99716.28
2023-04-23T15:21:56.342Z,99714.28
2023-04-23T15:24:22.939Z,99713.28
2023-04-23T15:26:49.701Z,99704.41
2023-04-23T15:29:16.546Z,99705.13
2023-04-23T15:31:47.965Z,99708.31
2023-04-23T15:34:14.656Z,99710.84
2023-04-23T15:36:41.257Z,99696.25
2023-04-23T15:39:08.248Z,99695.28
2023-04-23T15:41:40.793Z,99706.47
2023-04-23T15:44:12.251Z,99694.72
2023-04-23T15:46:39.097Z,99691.06
2023-04-23T15:49:06.040Z,99691.66
2023-04-23T15:51:33.061Z,99690.84
2023-04-23T15:54:02.734Z,99691.53
2023-04-23T15:56:29.338Z,99692.47
2023-04-23T15:58:55.942Z,99695.53
2023-04-23T16:01:24.208Z,99681.13
2023-04-23T16:04:08.520Z,99693.19
2023-04-23T16:06:36.671Z,99690.09
2023-04-23T16:09:06.919Z,99686.69
2023-04-23T16:11:39.062Z,99682.66
2023-04-23T16:14:05.796Z,99689.59
2023-04-23T16:16:32.631Z,99686.09
2023-04-23T16:19:04.712Z,99687.31
2023-04-23T16:21:33.510Z,99679.28
2023-04-23T16:24:00.517Z,99678.50
2023-04-23T16:26:29.497Z,99690.97
2023-04-23T16:29:16.848Z,99681.53
2023-04-23T16:31:43.166Z,99680.41
2023-04-23T16:34:10.314Z,99677.25
2023-04-23T16:36:36.989Z,99671.50
2023-04-23T16:39:04.422Z,99668.69
2023-04-23T16:41:31.696Z,99674.47
2023-04-23T16:43:58.321Z,99672.22
2023-04-23T16:46:26.720Z,99676.00
2023-04-23T16:48:53.747Z,99663.66
2023-04-23T16:51:20.422Z,99667.53
2023-04-23T16:53:47.025Z,99664.50
2023-04-23T16:56:13.722Z,99668.47
2023-04-23T16:58:40.506Z,99664.44
2023-04-23T17:01:07.042Z,99660.50
2023-04-23T17:03:34.006Z,99662.34
2023-04-23T17:06:09.230Z,99666.38
2023-04-23T17:08:37.451Z,99663.16
2023-04-23T17:11:05.304Z,99655.63
2023-04-23T17:13:32.685Z,99657.59
2023-04-23T17:16:01.916Z,99661.56
2023-04-23T17:18:28.664Z,99658.44
2023-04-23T17:20:55.565Z,99660.66
2023-04-23T17:23:24.668Z,99662.75
2023-04-23T17:25:51.426Z,99659.38
2023-04-23T17:28:21.116Z,99658.81
2023-04-23T17:30:50.708Z,99661.66
2023-04-23T17:33:17.977Z,99666.22
2023-04-23T17:35:46.922Z,99664.03
2023-04-23T17:38:20.711Z,99667.84
2023-04-23T17:40:47.881Z,99659.22
2023-04-23T17:43:17.132Z,99666.47
2023-04-23T17:45:47.628Z,99664.06
2023-04-23T17:48:14.795Z,99664.25
2023-04-23T17:50:41.822Z,99674.16
2023-04-23T17:53:08.424Z,99670.91
2023-04-23T17:55:37.354Z,99672.84
2023-04-23T17:58:07.683Z,99675.63
2023-04-23T18:00:42.204Z,99676.66
2023-04-23T18:03:09.521Z,99677.66
2023-04-23T18:05:38.700Z,99676.97
2023-04-23T18:08:06.946Z,99680.66
2023-04-23T18:10:36.036Z,99679.09
2023-04-23T18:13:09.098Z,99675.66
2023-04-23T18:15:35.766Z,99684.56
2023-04-23T18:18:02.496Z,99686.50
2023-04-23T18:20:30.305Z,99692.75
2023-04-23T18:22:56.837Z,99697.19
2023-04-23T18:25:25.274Z,99691.06
2023-04-23T18:27:51.985Z,99691.19
2023-04-23T18:30:23.190Z,99697.38
2023-04-23T18:32:52.380Z,99706.22
2023-04-23T18:35:19.432Z,99708.97
2023-04-23T18:37:52.759Z,99712.47
2023-04-23T18:40:21.875Z,99718.72
2023-04-23T18:42:53.216Z,99718.81
2023-04-23T18:45:19.846Z,99712.72
2023-04-23T18:48:12.997Z,99718.84
2023-04-23T18:50:43.656Z,99718.06
2023-04-23T18:53:10.349Z,99722.56
2023-04-23T18:55:37.176Z,99720.94
2023-04-23T18:58:04.600Z,99720.19
2023-04-23T19:00:31.527Z,99719.34
2023-04-23T19:03:06.506Z,99715.84
2023-04-23T19:05:38.573Z,99717.66
2023-04-23T19:08:07.666Z,99719.50
2023-04-23T19:10:39.138Z,99718.66
2023-04-23T19:13:06.157Z,99711.69
2023-04-23T19:15:32.692Z,99714.34
2023-04-23T19:17:59.365Z,99721.44
2023-04-23T19:20:26.076Z,99720.63
2023-04-23T19:22:52.674Z,99722.47
2023-04-23T19:25:19.267Z,99718.13
2023-04-23T19:27:48.226Z,99725.19
2023-04-23T19:30:15.038Z,99725.28
2023-04-23T19:32:41.726Z,99725.34
2023-04-23T19:35:08.479Z,99727.94
2023-04-23T19:37:36.132Z,99722.69
2023-04-23T19:40:02.842Z,99721.00
2023-04-23T19:42:31.406Z,99729.81
2023-04-23T19:45:00.394Z,99724.59
2023-04-23T19:47:29.830Z,99729.09
2023-04-23T19:49:56.661Z,99718.63
2023-04-23T19:52:24.035Z,99721.28
2023-04-23T19:54:50.681Z,99717.81
2023-04-23T19:57:19.873Z,99718.69
2023-04-23T19:59:46.586Z,99711.75
2023-04-23T20:02:13.391Z,99716.13
2023-04-23T20:04:42.419Z,99710.00
2023-04-23T20:07:09.099Z,99711.78
2023-04-23T20:09:36.404Z,99718.78
2023-04-23T20:12:03.014Z,99713.56
2023-04-23T20:14:29.925Z,99713.63
2023-04-23T20:16:56.920Z,99706.66
2023-04-23T20:19:25.946Z,99702.28
2023-04-23T20:21:55.146Z,99708.41
2023-04-23T20:24:24.075Z,99702.25
2023-04-23T20:26:50.969Z,99701.41
2023-04-23T20:29:17.628Z,99693.56
2023-04-23T20:31:48.831Z,99695.31
2023-04-23T20:34:16.476Z,99690.03
2023-04-23T20:36:47.262Z,99688.28
2023-04-23T20:39:14.055Z,99690.03
2023-04-23T20:41:43.187Z,99687.47
2023-04-23T20:44:12.191Z,99694.50
2023-04-23T20:46:38.829Z,99690.13
2023-04-23T20:49:05.605Z,99692.78
2023-04-23T20:51:35.113Z,99693.72
2023-04-23T20:54:02.158Z,99691.09
2023-04-23T20:56:29.121Z,99696.38
2023-04-23T20:58:57.656Z,99688.50
2023-04-23T21:01:24.976Z,99692.00
2023-04-23T21:03:54.467Z,99686.72
2023-04-23T21:06:23.932Z,99687.63
2023-04-23T21:08:50.518Z,99683.25
2023-04-23T21:11:20.473Z,99685.91
2023-04-23T21:13:47.512Z,99682.44
2023-04-23T21:16:14.396Z,99671.97
2023-04-23T21:18:41.091Z,99685.09
2023-04-23T21:21:08.279Z,99670.25
2023-04-23T21:23:35.176Z,99672.91
2023-04-23T21:26:01.730Z,99668.53
2023-04-23T21:28:33.823Z,99669.41
2023-04-23T21:31:06.091Z,99671.19
2023-04-23T21:33:35.652Z,99666.84
2023-04-23T21:36:07.237Z,99670.34
2023-04-23T21:38:33.805Z,99665.13
2023-04-23T21:41:01.289Z,99666.91
2023-04-23T21:43:28.735Z,99661.66
2023-04-23T21:45:55.360Z,99662.50
2023-04-23T21:48:23.166Z,99660.75
2023-04-23T21:50:55.258Z,99655.50
2023-04-23T21:53:22.566Z,99659.03
2023-04-23T21:55:49.134Z,99651.19
2023-04-23T21:58:18.354Z,99646.84
2023-04-23T22:00:45.514Z,99638.09
2023-04-23T22:03:12.756Z,99642.44
2023-04-23T22:05:48.274Z,99633.69
2023-04-23T22:08:16.544Z,99636.31
2023-04-23T22:10:43.416Z,99632.81
2023-04-23T22:13:11.194Z,99636.31
2023-04-23T22:15:38.455Z,99634.59
2023-04-23T22:18:07.642Z,99631.97
2023-04-23T22:20:37.983Z,99639.00
2023-04-23T22:23:04.692Z,99634.63
2023-04-23T22:25:33.673Z,99627.66
2023-04-23T22:28:00.279Z,99625.00
2023-04-23T22:30:26.903Z,99624.16
2023-04-23T22:32:54.021Z,99620.66
2023-04-23T22:35:20.682Z,99621.56
2023-04-23T22:37:47.648Z,99621.53
2023-04-23T22:40:14.276Z,99613.69
2023-04-23T22:42:40.920Z,99610.22
2023-04-23T22:45:08.498Z,99608.47
2023-04-23T22:47:35.485Z,99609.34
2023-04-23T22:50:06.615Z,99604.13
2023-04-23T22:52:33.295Z,99609.31
2023-04-23T22:55:00.496Z,99610.22
2023-04-23T22:57:30.611Z,99612.81
2023-04-23T22:59:59.599Z,99604.97
2023-04-23T23:02:26.924Z,99600.59
2023-04-23T23:04:56.073Z,99596.25
2023-04-23T23:07:22.778Z,99595.38
2023-04-23T23:09:52.354Z,99591.88
2023-04-23T23:12:19.049Z,99587.53
2023-04-23T23:14:45.829Z,99579.69
2023-04-23T23:17:14.789Z,99584.03
2023-04-23T23:19:42.664Z,99579.69
2023-04-23T23:22:09.573Z,99577.94
2023-04-23T23:24:39.286Z,99577.94
2023-04-23T23:27:08.063Z,99578.81
2023-04-23T23:29:34.712Z,99564.88
2023-04-23T23:32:01.346Z,99570.94
2023-04-23T23:34:27.915Z,99562.25
2023-04-23T23:36:54.568Z,99568.38
2023-04-23T23:39:21.544Z,99570.09
2023-04-23T23:41:50.843Z,99557.91
2023-04-23T23:44:22.906Z,99558.78
2023-04-23T23:46:49.621Z,99558.78
2023-04-23T23:49:16.366Z,99557.91
2023-04-23T23:51:44.103Z,99551.81
2023-04-23T23:54:10.861Z,99553.56
2023-04-23T23:56:37.576Z,99543.09
2023-04-23T23:59:04.223Z,99548.31
